createdAt,value
2018-01-16T00:01:30.293Z,0.40
2018-01-16T00:03:57.838Z,0.70
2018-01-16T00:06:26.100Z,0.40
2018-01-16T00:08:53.602Z,0.30
2018-01-16T00:11:21.129Z,0.40
2018-01-16T00:13:48.659Z,0.62
2018-01-16T00:16:16.213Z,0.53
2018-01-16T00:18:44.512Z,0.40
2018-01-16T00:21:12.811Z,0.40
2018-01-16T00:23:40.302Z,0.40
2018-01-16T00:26:07.831Z,0.40
2018-01-16T00:28:35.368Z,0.40
2018-01-16T00:31:03.615Z,0.30
2018-01-16T00:33:31.125Z,0.40
2018-01-16T00:35:58.615Z,0.50
2018-01-16T00:38:26.141Z,0.40
2018-01-16T00:40:53.632Z,0.37
2018-01-16T00:43:21.156Z,0.30
2018-01-16T00:45:48.676Z,0.30
2018-01-16T00:48:16.935Z,0.30
2018-01-16T00:50:44.453Z,0.40
2018-01-16T00:53:11.949Z,0.33
2018-01-16T00:55:39.484Z,0.47
2018-01-16T00:58:06.989Z,0.30
2018-01-16T01:00:35.249Z,0.40
2018-01-16T01:03:03.539Z,0.40
2018-01-16T01:05:31.038Z,0.30
2018-01-16T01:07:58.560Z,0.40
2018-01-16T01:10:26.092Z,0.37
2018-01-16T01:12:54.348Z,0.30
2018-01-16T01:15:21.873Z,0.40
2018-01-16T01:17:49.394Z,0.40
2018-01-16T01:20:17.685Z,0.30
2018-01-16T01:22:45.255Z,0.30
2018-01-16T01:25:12.770Z,0.60
2018-01-16T01:27:41.064Z,0.30
2018-01-16T01:30:08.561Z,0.30
2018-01-16T01:32:36.099Z,0.40
2018-01-16T01:35:03.592Z,0.40
2018-01-16T01:37:31.117Z,0.30
2018-01-16T01:39:58.703Z,0.30
2018-01-16T01:42:26.224Z,0.47
2018-01-16T01:44:53.715Z,0.50
2018-01-16T01:47:21.256Z,0.50
2018-01-16T01:49:48.752Z,0.40
2018-01-16T01:52:16.245Z,0.30
2018-01-16T01:54:43.776Z,0.40
2018-01-16T01:57:12.046Z,0.30
2018-01-16T01:59:39.556Z,0.30
2018-01-16T02:02:07.045Z,0.30
2018-01-16T02:04:34.567Z,0.30
2018-01-16T02:07:02.063Z,0.40
2018-01-16T02:09:29.556Z,0.30
2018-01-16T02:11:57.082Z,0.30
2018-01-16T02:14:25.355Z,0.40
2018-01-16T02:16:52.883Z,0.30
2018-01-16T02:19:20.419Z,0.30
2018-01-16T02:21:47.904Z,0.60
2018-01-16T02:24:15.404Z,0.40
2018-01-16T02:26:43.700Z,0.40
2018-01-16T02:29:11.201Z,0.33
2018-01-16T02:31:38.726Z,0.40
2018-01-16T02:34:06.235Z,0.30
2018-01-16T02:36:34.532Z,0.40
2018-01-16T02:39:02.052Z,0.30
2018-01-16T02:41:29.551Z,0.57
2018-01-16T02:43:57.055Z,0.30
2018-01-16T02:46:24.579Z,0.40
2018-01-16T02:48:52.074Z,0.40
2018-01-16T02:51:19.588Z,0.30
2018-01-16T02:53:47.082Z,1.23
2018-01-16T02:56:14.633Z,0.40
2018-01-16T02:58:42.131Z,0.33
2018-01-16T03:01:10.383Z,0.60
2018-01-16T03:03:37.909Z,0.30
2018-01-16T03:06:05.469Z,0.40
2018-01-16T03:08:32.962Z,0.30
2018-01-16T03:11:00.502Z,0.30
2018-01-16T03:13:28.024Z,0.40
2018-01-16T03:15:55.557Z,0.40
2018-01-16T03:18:23.048Z,0.40
2018-01-16T03:20:50.587Z,0.40
2018-01-16T03:23:18.112Z,0.50
2018-01-16T03:25:46.381Z,0.50
2018-01-16T03:28:13.924Z,0.40
2018-01-16T03:30:41.399Z,0.30
2018-01-16T03:33:09.649Z,0.40
2018-01-16T03:35:37.155Z,0.30
2018-01-16T03:38:04.685Z,0.40
2018-01-16T03:40:32.936Z,0.30
2018-01-16T03:43:00.485Z,0.40
2018-01-16T03:45:28.740Z,0.30
2018-01-16T03:47:56.230Z,0.70
2018-01-16T03:50:23.745Z,0.30
2018-01-16T03:52:51.242Z,0.47
2018-01-16T03:55:18.769Z,0.40
2018-01-16T03:57:46.268Z,0.40
2018-01-16T04:00:13.759Z,0.40
2018-01-16T04:02:41.300Z,0.30
2018-01-16T04:05:09.563Z,0.50
2018-01-16T04:07:37.063Z,0.40
2018-01-16T04:10:04.628Z,0.30
2018-01-16T04:12:32.145Z,0.40
2018-01-16T04:15:00.449Z,0.40
2018-01-16T04:17:28.012Z,0.57
2018-01-16T04:19:55.548Z,0.30
2018-01-16T04:22:23.035Z,0.30
2018-01-16T04:24:50.530Z,0.30
2018-01-16T04:27:18.627Z,0.50
2018-01-16T04:29:46.910Z,0.30
2018-01-16T04:32:14.409Z,0.67
2018-01-16T04:34:41.896Z,0.40
2018-01-16T04:37:10.181Z,0.30
2018-01-16T04:39:38.440Z,0.40
2018-01-16T04:42:05.920Z,0.37
2018-01-16T04:44:36.008Z,0.60
2018-01-16T04:47:03.695Z,0.30
2018-01-16T04:49:33.015Z,0.30
2018-01-16T04:52:00.511Z,0.40
2018-01-16T04:54:28.336Z,0.40
2018-01-16T04:56:57.216Z,1.43
2018-01-16T04:59:24.745Z,0.40
2018-01-16T05:01:52.254Z,0.47
2018-01-16T05:04:19.735Z,0.50
2018-01-16T05:06:47.277Z,0.40
2018-01-16T05:09:14.990Z,0.30
2018-01-16T05:11:43.461Z,0.30
2018-01-16T05:14:11.745Z,0.40
2018-01-16T05:16:40.225Z,1.00
2018-01-16T05:19:08.513Z,0.40
2018-01-16T05:21:36.759Z,0.33
2018-01-16T05:24:05.473Z,0.40
2018-01-16T05:26:33.723Z,0.50
2018-01-16T05:29:01.237Z,0.50
2018-01-16T05:31:28.759Z,0.40
2018-01-16T05:33:57.006Z,0.40
2018-01-16T05:36:24.554Z,0.60
2018-01-16T05:38:52.034Z,3.80
2018-01-16T05:41:20.317Z,0.40
2018-01-16T05:43:48.569Z,0.60
2018-01-16T05:46:16.086Z,0.50
2018-01-16T05:48:45.108Z,0.50
2018-01-16T05:51:12.628Z,0.40
2018-01-16T05:53:40.139Z,0.30
2018-01-16T05:56:07.651Z,0.47
2018-01-16T05:58:35.183Z,0.30
2018-01-16T06:01:03.111Z,0.30
2018-01-16T06:03:30.598Z,0.40
2018-01-16T06:05:58.882Z,0.50
2018-01-16T06:08:26.368Z,0.50
2018-01-16T06:10:53.881Z,0.30
2018-01-16T06:13:22.137Z,0.40
2018-01-16T06:15:49.650Z,0.40
2018-01-16T06:18:17.174Z,0.37
2018-01-16T06:20:45.449Z,0.50
2018-01-16T06:23:12.987Z,2.73
2018-01-16T06:25:40.462Z,0.50
2018-01-16T06:28:08.719Z,0.60
2018-01-16T06:30:37.007Z,0.40
2018-01-16T06:33:05.270Z,2.00
2018-01-16T06:35:32.746Z,0.30
2018-01-16T06:38:00.270Z,0.70
2018-01-16T06:40:27.881Z,2.00
2018-01-16T06:42:55.402Z,0.40
2018-01-16T06:45:24.232Z,0.40
2018-01-16T06:47:51.711Z,0.93
2018-01-16T06:50:19.236Z,0.60
2018-01-16T06:52:46.761Z,0.60
2018-01-16T06:55:15.012Z,0.60
2018-01-16T06:57:42.495Z,0.40
2018-01-16T07:00:10.002Z,0.40
2018-01-16T07:02:37.477Z,1.60
2018-01-16T07:05:05.021Z,0.30
2018-01-16T07:07:32.509Z,0.40
2018-01-16T07:10:00.000Z,0.47
2018-01-16T07:12:27.511Z,0.60
2018-01-16T07:14:54.995Z,0.40
2018-01-16T07:17:22.507Z,0.40
2018-01-16T07:19:50.757Z,0.60
2018-01-16T07:22:18.262Z,0.40
2018-01-16T07:24:45.835Z,0.40
2018-01-16T07:27:13.346Z,0.40
2018-01-16T07:29:40.850Z,0.70
2018-01-16T07:32:08.372Z,0.40
2018-01-16T07:34:36.669Z,0.40
2018-01-16T07:37:04.167Z,0.50
2018-01-16T07:39:31.651Z,0.70
2018-01-16T07:41:59.170Z,0.40
2018-01-16T07:44:26.680Z,0.40
2018-01-16T07:46:54.184Z,0.40
2018-01-16T07:49:21.674Z,0.40
2018-01-16T07:51:49.173Z,0.50
2018-01-16T07:54:16.665Z,2.10
2018-01-16T07:56:44.169Z,0.40
2018-01-16T07:59:12.463Z,2.20
2018-01-16T08:01:40.715Z,0.53
2018-01-16T08:04:08.193Z,0.60
2018-01-16T08:06:35.731Z,0.50
2018-01-16T08:09:04.004Z,0.40
2018-01-16T08:11:32.253Z,0.60
2018-01-16T08:13:59.779Z,0.57
2018-01-16T08:16:27.275Z,0.40
2018-01-16T08:18:54.781Z,0.50
2018-01-16T08:21:22.290Z,0.50
2018-01-16T08:23:49.777Z,0.30
2018-01-16T08:26:18.055Z,0.40
2018-01-16T08:28:46.298Z,0.40
2018-01-16T08:31:14.598Z,0.50
2018-01-16T08:33:42.082Z,0.43
2018-01-16T08:36:09.586Z,0.40
2018-01-16T08:38:37.076Z,0.30
2018-01-16T08:41:04.590Z,0.40
2018-01-16T08:43:32.105Z,0.40
2018-01-16T08:45:59.624Z,0.50
2018-01-16T08:48:27.130Z,2.00
2018-01-16T08:50:54.625Z,0.60
2018-01-16T08:53:22.138Z,0.40
2018-01-16T08:55:49.631Z,0.47
2018-01-16T08:58:17.153Z,0.40
2018-01-16T09:00:44.631Z,0.40
2018-01-16T09:03:12.141Z,0.30
2018-01-16T09:05:40.420Z,0.40
2018-01-16T09:08:07.909Z,0.60
2018-01-16T09:10:35.430Z,0.50
2018-01-16T09:13:03.683Z,0.40
2018-01-16T09:15:31.166Z,2.00
2018-01-16T09:17:58.785Z,0.50
2018-01-16T09:20:26.298Z,0.40
2018-01-16T09:22:53.781Z,0.37
2018-01-16T09:25:21.298Z,0.30
2018-01-16T09:27:48.982Z,0.50
2018-01-16T09:30:16.476Z,0.60
2018-01-16T09:32:43.966Z,0.60
2018-01-16T09:35:11.492Z,0.50
2018-01-16T09:37:38.971Z,0.90
2018-01-16T09:40:07.222Z,0.43
2018-01-16T09:42:34.732Z,0.30
2018-01-16T09:45:02.227Z,0.30
2018-01-16T09:47:29.729Z,0.50
2018-01-16T09:49:57.242Z,0.50
2018-01-16T09:52:24.757Z,0.50
2018-01-16T09:54:52.260Z,0.50
2018-01-16T09:57:19.751Z,0.40
2018-01-16T09:59:47.262Z,0.40
2018-01-16T10:02:14.751Z,0.50
2018-01-16T10:04:43.019Z,0.40
2018-01-16T10:07:11.301Z,0.50
2018-01-16T10:09:39.592Z,0.50
2018-01-16T10:12:07.075Z,0.90
2018-01-16T10:14:34.590Z,0.50
2018-01-16T10:17:02.841Z,0.60
2018-01-16T10:19:30.360Z,0.43
2018-01-16T10:21:57.847Z,0.50
2018-01-16T10:24:25.378Z,0.93
2018-01-16T10:26:52.888Z,0.40
2018-01-16T10:29:21.145Z,0.50
2018-01-16T10:31:48.678Z,0.40
2018-01-16T10:34:16.156Z,0.50
2018-01-16T10:36:43.640Z,0.40
2018-01-16T10:39:11.903Z,0.40
2018-01-16T10:41:40.161Z,0.40
2018-01-16T10:44:07.672Z,0.60
2018-01-16T10:46:35.171Z,0.40
2018-01-16T10:49:02.655Z,0.50
2018-01-16T10:51:30.947Z,0.50
2018-01-16T10:53:58.438Z,0.30
2018-01-16T10:56:25.948Z,0.40
2018-01-16T10:58:54.197Z,0.40
2018-01-16T11:01:21.710Z,0.50
2018-01-16T11:03:49.200Z,0.60
2018-01-16T11:06:16.721Z,1.40
2018-01-16T11:08:44.257Z,0.50
2018-01-16T11:11:11.743Z,0.60
2018-01-16T11:13:39.267Z,0.77
2018-01-16T11:16:07.509Z,0.60
2018-01-16T11:18:35.013Z,0.40
2018-01-16T11:21:02.503Z,0.97
2018-01-16T11:23:30.028Z,0.40
2018-01-16T11:25:57.524Z,1.63
2018-01-16T11:28:25.003Z,0.57
2018-01-16T11:30:52.527Z,0.40
2018-01-16T11:33:20.019Z,0.67
2018-01-16T11:35:48.290Z,0.40
2018-01-16T11:38:16.534Z,0.40
2018-01-16T11:40:44.047Z,0.50
2018-01-16T11:43:11.538Z,0.40
2018-01-16T11:45:39.083Z,0.87
2018-01-16T11:48:06.565Z,0.40
2018-01-16T11:50:34.854Z,1.47
2018-01-16T11:53:02.376Z,0.53
2018-01-16T11:55:29.894Z,0.30
2018-01-16T11:57:58.138Z,0.50
2018-01-16T12:00:25.657Z,0.50
2018-01-16T12:02:53.172Z,0.80
2018-01-16T12:05:21.456Z,0.40
2018-01-16T12:07:49.712Z,0.73
2018-01-16T12:10:17.242Z,0.40
2018-01-16T12:12:44.728Z,0.40
2018-01-16T12:15:12.217Z,0.40
2018-01-16T12:17:39.753Z,0.60
2018-01-16T12:20:08.018Z,0.80
2018-01-16T12:22:35.504Z,1.00
2018-01-16T12:25:03.020Z,0.50
2018-01-16T12:27:30.620Z,0.40
2018-01-16T12:29:58.116Z,0.40
2018-01-16T12:32:25.605Z,2.50
2018-01-16T12:34:53.895Z,0.30
2018-01-16T12:37:22.138Z,0.77
2018-01-16T12:39:49.752Z,0.40
2018-01-16T12:42:17.243Z,0.40
2018-01-16T12:44:44.733Z,0.30
2018-01-16T12:47:13.019Z,0.30
2018-01-16T12:49:41.322Z,0.70
2018-01-16T12:52:08.833Z,0.43
2018-01-16T12:54:36.326Z,0.30
2018-01-16T12:57:03.852Z,0.40
2018-01-16T12:59:32.098Z,0.30
2018-01-16T13:01:59.579Z,0.40
2018-01-16T13:04:27.858Z,0.30
2018-01-16T13:06:56.107Z,0.30
2018-01-16T13:09:23.633Z,0.40
2018-01-16T13:11:51.117Z,0.30
2018-01-16T13:14:18.646Z,0.40
2018-01-16T13:16:46.163Z,0.40
2018-01-16T13:19:14.489Z,0.40
2018-01-16T13:21:42.019Z,0.40
2018-01-16T13:24:09.521Z,0.30
2018-01-16T13:26:37.031Z,0.30
2018-01-16T13:29:04.574Z,0.30
2018-01-16T13:31:32.846Z,0.40
2018-01-16T13:34:00.378Z,0.40
2018-01-16T13:36:27.891Z,0.87
2018-01-16T13:38:55.445Z,0.50
2018-01-16T13:41:22.959Z,0.30
2018-01-16T13:43:50.465Z,0.40
2018-01-16T13:46:18.016Z,1.40
2018-01-16T13:48:45.527Z,0.40
2018-01-16T13:51:13.034Z,0.30
2018-01-16T13:53:40.594Z,0.37
2018-01-16T13:56:08.097Z,0.40
2018-01-16T13:58:35.618Z,0.47
2018-01-16T14:01:03.166Z,0.40
2018-01-16T14:03:30.678Z,0.50
2018-01-16T14:05:58.953Z,0.40
2018-01-16T14:08:26.503Z,0.40
2018-01-16T14:10:54.013Z,0.50
2018-01-16T14:13:21.519Z,0.53
2018-01-16T14:15:49.054Z,0.57
2018-01-16T14:18:16.566Z,1.40
2018-01-16T14:20:44.113Z,0.40
2018-01-16T14:23:12.378Z,0.50
2018-01-16T14:25:40.659Z,0.50
2018-01-16T14:28:08.966Z,0.47
2018-01-16T14:30:37.256Z,0.40
2018-01-16T14:33:04.824Z,0.50
2018-01-16T14:35:32.335Z,0.97
2018-01-16T14:37:59.847Z,0.60
2018-01-16T14:40:27.407Z,0.40
2018-01-16T14:42:54.930Z,1.20
2018-01-16T14:45:22.437Z,0.40
2018-01-16T14:47:49.982Z,0.60
2018-01-16T14:50:17.535Z,1.03
2018-01-16T14:52:45.048Z,1.13
2018-01-16T14:55:12.565Z,1.13
2018-01-16T14:57:40.894Z,0.50
2018-01-16T15:05:50.754Z,1.57
2018-01-16T15:08:18.246Z,1.67
2018-01-16T15:10:45.754Z,3.43
2018-01-16T15:13:14.038Z,0.60
2018-01-16T15:15:41.523Z,1.87
2018-01-16T15:18:09.056Z,3.20
2018-01-16T15:20:36.542Z,0.97
2018-01-16T15:23:04.022Z,0.40
2018-01-16T15:25:31.538Z,0.30
2018-01-16T15:27:59.051Z,0.30
2018-01-16T15:30:27.303Z,3.13
2018-01-16T15:32:54.821Z,0.83
2018-01-16T15:35:22.353Z,2.10
2018-01-16T15:37:49.897Z,6.72
2018-01-16T15:40:18.154Z,1.43
2018-01-16T15:42:45.680Z,0.90
2018-01-16T15:45:13.190Z,0.77
2018-01-16T15:47:41.469Z,3.30
2018-01-16T15:50:09.808Z,1.00
2018-01-16T15:52:37.302Z,0.63
2018-01-16T15:55:04.794Z,0.73
2018-01-16T15:57:32.366Z,3.00
2018-01-16T15:59:59.879Z,1.87
2018-01-16T16:02:27.375Z,1.20
2018-01-16T16:04:58.326Z,0.95
2018-01-16T16:07:26.107Z,1.30
2018-01-16T16:09:53.596Z,1.20
2018-01-16T16:12:21.124Z,0.62
2018-01-16T16:14:48.611Z,1.37
2018-01-16T16:17:16.185Z,0.60
2018-01-16T16:19:43.714Z,0.60
2018-01-16T16:22:11.215Z,1.90
2018-01-16T16:24:38.734Z,2.22
2018-01-16T16:27:06.243Z,4.35
2018-01-16T16:29:33.772Z,2.90
2018-01-16T16:32:01.287Z,1.60
2018-01-16T16:34:29.580Z,1.23
2018-01-16T16:36:57.074Z,0.82
2018-01-16T16:39:24.624Z,0.52
2018-01-16T16:41:52.109Z,0.67
2018-01-16T16:44:20.419Z,0.55
2018-01-16T16:46:48.702Z,0.77
2018-01-16T16:49:16.201Z,0.68
2018-01-16T16:51:43.739Z,0.50
2018-01-16T16:54:11.243Z,0.60
2018-01-16T16:56:38.794Z,0.60
2018-01-16T16:59:06.299Z,0.82
2018-01-16T17:01:33.805Z,0.45
2018-01-16T17:04:01.326Z,0.53
2018-01-16T17:06:28.815Z,0.60
2018-01-16T17:08:56.356Z,1.63
2018-01-16T17:11:23.852Z,0.77
2018-01-16T17:13:52.127Z,0.80
2018-01-16T17:16:20.437Z,0.70
2018-01-16T17:18:47.974Z,0.97
2018-01-16T17:21:16.235Z,0.53
2018-01-16T17:23:45.333Z,0.47
2018-01-16T17:26:12.857Z,0.80
2018-01-16T17:28:41.144Z,0.43
2018-01-16T17:31:09.407Z,0.40
2018-01-16T17:33:37.706Z,0.50
2018-01-16T17:36:05.198Z,0.90
2018-01-16T17:38:32.686Z,0.70
2018-01-16T17:41:00.208Z,0.60
2018-01-16T17:43:27.718Z,0.70
2018-01-16T17:45:55.998Z,0.70
2018-01-16T17:48:23.493Z,0.50
2018-01-16T17:50:51.060Z,0.93
2018-01-16T17:53:18.570Z,0.60
2018-01-16T17:55:46.091Z,6.20
2018-01-16T17:58:13.587Z,1.50
2018-01-16T18:00:41.388Z,1.73
2018-01-16T18:03:08.911Z,1.23
2018-01-16T18:05:36.408Z,7.00
2018-01-16T18:08:03.899Z,2.20
2018-01-16T18:10:32.182Z,1.03
2018-01-16T18:13:00.452Z,0.70
2018-01-16T18:15:27.986Z,1.63
2018-01-16T18:17:55.481Z,3.90
2018-01-16T18:20:22.990Z,1.83
2018-01-16T18:22:50.546Z,5.13
2018-01-16T18:25:18.043Z,1.60
2018-01-16T18:27:46.324Z,1.50
2018-01-16T18:30:13.859Z,7.90
2018-01-16T18:32:41.362Z,0.90
2018-01-16T18:35:08.848Z,1.00
2018-01-16T18:37:36.372Z,0.83
2018-01-16T18:40:03.867Z,0.90
2018-01-16T18:42:31.358Z,1.80
2018-01-16T18:44:59.686Z,0.60
2018-01-16T18:47:27.215Z,0.80
2018-01-16T18:49:54.742Z,0.60
2018-01-16T18:52:23.071Z,0.50
2018-01-16T18:54:50.579Z,0.40
2018-01-16T18:57:18.912Z,3.10
2018-01-16T18:59:46.408Z,0.80
2018-01-16T19:02:14.662Z,1.23
2018-01-16T19:04:42.175Z,3.03
2018-01-16T19:07:09.660Z,0.60
2018-01-16T19:09:37.244Z,0.40
2018-01-16T19:12:04.808Z,2.03
2018-01-16T19:14:33.071Z,0.60
2018-01-16T19:17:00.567Z,0.50
2018-01-16T19:19:28.219Z,1.20
2018-01-16T19:21:55.698Z,1.17
2018-01-16T19:24:23.192Z,1.17
2018-01-16T19:26:50.716Z,0.60
2018-01-16T19:29:18.266Z,0.73
2018-01-16T19:31:45.747Z,0.40
2018-01-16T19:34:13.304Z,0.50
2018-01-16T19:36:41.638Z,0.80
2018-01-16T19:39:09.300Z,0.60
2018-01-16T19:41:36.857Z,0.90
2018-01-16T19:44:04.431Z,0.70
2018-01-16T19:46:32.762Z,1.12
2018-01-16T19:49:01.108Z,0.75
2018-01-16T19:51:28.605Z,0.43
2018-01-16T19:53:56.870Z,1.37
2018-01-16T19:56:25.175Z,0.55
2018-01-16T19:58:52.722Z,0.50
2018-01-16T20:01:20.317Z,0.53
2018-01-16T20:03:47.810Z,0.60
2018-01-16T20:06:16.220Z,1.40
2018-01-16T20:08:43.718Z,4.10
2018-01-16T20:11:11.518Z,2.72
2018-01-16T20:13:39.968Z,0.50
2018-01-16T20:16:07.474Z,0.60
2018-01-16T20:18:35.016Z,0.88
2018-01-16T20:21:03.279Z,0.67
2018-01-16T20:23:30.771Z,0.80
2018-01-16T20:25:58.303Z,0.90
2018-01-16T20:28:26.624Z,1.25
2018-01-16T20:30:54.193Z,0.50
2018-01-16T20:33:21.682Z,0.50
2018-01-16T20:35:49.942Z,1.12
2018-01-16T20:38:17.529Z,1.08
2018-01-16T20:40:45.853Z,1.33
2018-01-16T20:43:13.348Z,1.75
2018-01-16T20:45:41.736Z,4.18
2018-01-16T20:48:10.051Z,2.15
2018-01-16T20:50:37.543Z,5.70
2018-01-16T20:53:05.087Z,6.67
2018-01-16T20:55:32.621Z,6.20
2018-01-16T20:58:00.144Z,4.00
2018-01-16T21:00:27.663Z,1.40
2018-01-16T21:02:55.193Z,27.10
2018-01-16T21:05:22.845Z,25.20
2018-01-16T21:07:50.393Z,12.73
2018-01-16T21:10:17.912Z,8.93
2018-01-16T21:12:45.439Z,3.17
2018-01-16T21:15:12.963Z,2.17
2018-01-16T21:17:40.452Z,1.53
2018-01-16T21:20:07.972Z,1.47
2018-01-16T21:22:35.458Z,1.00
2018-01-16T21:25:02.978Z,0.93
2018-01-16T21:27:31.313Z,0.60
2018-01-16T21:29:58.894Z,1.57
2018-01-16T21:32:26.415Z,0.62
2018-01-16T21:34:53.958Z,2.00
2018-01-16T21:37:21.471Z,0.90
2018-01-16T21:39:49.765Z,1.10
2018-01-16T21:42:18.072Z,0.80
2018-01-16T21:44:45.641Z,1.00
2018-01-16T21:47:13.182Z,1.00
2018-01-16T21:49:40.718Z,0.93
2018-01-16T21:52:08.972Z,0.83
2018-01-16T21:54:37.309Z,2.03
2018-01-16T21:57:04.875Z,0.60
2018-01-16T21:59:32.495Z,0.47
2018-01-16T22:01:59.987Z,0.53
2018-01-16T22:04:27.528Z,0.50
2018-01-16T22:06:55.790Z,0.57
2018-01-16T22:09:23.274Z,0.50
2018-01-16T22:11:51.778Z,0.43
2018-01-16T22:14:20.115Z,0.68
2018-01-16T22:16:47.586Z,0.37
2018-01-16T22:19:15.215Z,0.50
2018-01-16T22:21:42.744Z,1.07
2018-01-16T22:24:11.007Z,0.45
2018-01-16T22:26:38.581Z,0.60
2018-01-16T22:29:06.079Z,0.30
2018-01-16T22:31:33.643Z,0.93
2018-01-16T22:34:01.127Z,0.50
2018-01-16T22:36:28.620Z,0.45
2018-01-16T22:38:56.689Z,0.40
2018-01-16T22:41:24.956Z,0.50
2018-01-16T22:43:52.484Z,0.43
2018-01-16T22:46:20.049Z,0.50
2018-01-16T22:48:47.567Z,1.27
2018-01-16T22:51:15.186Z,0.50
2018-01-16T22:53:42.675Z,0.40
2018-01-16T22:56:10.176Z,3.30
2018-01-16T22:58:37.695Z,0.67
2018-01-16T23:01:05.186Z,1.23
2018-01-16T23:03:32.710Z,0.43
2018-01-16T23:06:00.207Z,0.50
2018-01-16T23:08:27.743Z,0.50
2018-01-16T23:10:55.231Z,0.80
2018-01-16T23:13:22.745Z,0.40
2018-01-16T23:15:50.263Z,0.50
2018-01-16T23:18:17.795Z,4.53
2018-01-16T23:20:45.311Z,1.63
2018-01-16T23:23:12.810Z,2.05
2018-01-16T23:25:40.345Z,1.03
2018-01-16T23:28:07.838Z,1.75
2018-01-16T23:30:35.339Z,0.80
2018-01-16T23:33:02.871Z,9.00
2018-01-16T23:35:30.369Z,1.00
2018-01-16T23:37:57.888Z,0.60
2018-01-16T23:40:26.176Z,1.23
2018-01-16T23:42:54.432Z,6.07
2018-01-16T23:45:21.948Z,3.70
2018-01-16T23:47:49.431Z,1.27
2018-01-16T23:50:18.414Z,1.95
2018-01-16T23:52:46.697Z,3.40
2018-01-16T23:55:14.977Z,4.93
2018-01-16T23:57:43.236Z,4.20
